Time;durP1;ratioP1;P1;durP2;ratioP2;P2;SDS_P1;SDS_P2;PMS_P1;PMS_P2;Temp;Humidity;BMP_temperature;BMP_pressure;BME280_temperature;BME280_humidity;BME280_pressure;Samples;Min_cycle;Max_cycle;Signal;HPM_P1;HPM_P2
2021/06/22 00:02:18;;;;;;;1999.90;999.90;;;18.90;99.90;;;;;;5075246;28;20207;-76
2021/06/22 00:04:44;;;;;;;1999.90;999.90;;;18.80;99.90;;;;;;5075884;28;20655;-76
2021/06/22 00:07:13;;;;;;;1999.90;999.90;;;18.70;99.90;;;;;;5076346;28;20189;-77
2021/06/22 00:09:39;;;;;;;1999.90;999.90;;;18.70;99.90;;;;;;5057336;28;20659;-76
2021/06/22 00:12:05;;;;;;;1999.90;999.90;;;18.60;99.90;;;;;;5039776;28;20187;-76
2021/06/22 00:14:31;;;;;;;1999.90;999.90;;;18.50;99.90;;;;;;5056991;28;20173;-76
2021/06/22 00:16:57;;;;;;;1999.90;999.90;;;18.40;99.90;;;;;;5074786;28;20200;-76
2021/06/22 00:19:22;;;;;;;1999.90;999.90;;;18.40;99.90;;;;;;5074897;28;20200;-77
2021/06/22 00:21:48;;;;;;;1999.90;999.90;;;18.50;99.90;;;;;;5074878;28;20208;-76
2021/06/22 00:24:14;;;;;;;1999.90;999.90;;;18.50;99.90;;;;;;5056709;28;20224;-76
2021/06/22 00:26:40;;;;;;;1999.90;999.90;;;18.50;99.90;;;;;;5074718;28;20292;-76
2021/06/22 00:29:05;;;;;;;1999.90;999.90;;;18.50;99.90;;;;;;5056676;28;20327;-76
2021/06/22 00:31:31;;;;;;;1999.90;999.90;;;18.50;99.90;;;;;;5074560;28;20173;-77
2021/06/22 00:33:57;;;;;;;1999.90;999.90;;;18.60;99.90;;;;;;5074574;28;20667;-76
2021/06/22 00:36:23;;;;;;;1999.90;999.90;;;18.60;99.90;;;;;;5056403;28;20208;-76
2021/06/22 00:38:48;;;;;;;1999.90;999.90;;;18.60;99.90;;;;;;5057851;28;20196;-76
2021/06/22 00:41:14;;;;;;;1999.90;999.90;;;18.70;99.90;;;;;;5057636;28;20188;-77
2021/06/22 00:43:41;;;;;;;1999.90;999.90;;;18.70;99.90;;;;;;5074343;28;20210;-77
2021/06/22 00:46:07;;;;;;;1999.90;999.90;;;18.80;99.90;;;;;;5056263;28;20661;-76
2021/06/22 00:48:33;;;;;;;1999.90;999.90;;;18.80;99.90;;;;;;5074312;28;20169;-76
2021/06/22 00:50:59;;;;;;;1999.90;999.90;;;18.80;99.90;;;;;;5056358;28;20180;-76
2021/06/22 00:53:25;;;;;;;1999.90;999.90;;;18.70;99.90;;;;;;5074274;28;20169;-76
2021/06/22 00:55:54;;;;;;;1999.90;999.90;;;18.70;99.90;;;;;;5056171;28;20203;-77
2021/06/22 00:58:21;;;;;;;1999.90;999.90;;;18.70;99.90;;;;;;5074011;28;20546;-76
2021/06/22 01:00:47;;;;;;;1999.90;999.90;;;18.70;99.90;;;;;;5074159;28;20165;-77
2021/06/22 01:03:12;;;;;;;1999.90;999.90;;;18.60;99.90;;;;;;5074049;28;20207;-76
2021/06/22 01:05:38;;;;;;;1999.90;999.90;;;18.60;99.90;;;;;;5073881;28;20201;-76
2021/06/22 01:08:04;;;;;;;1999.90;999.90;;;18.70;99.90;;;;;;5074020;28;20200;-77
2021/06/22 01:10:30;;;;;;;1999.90;999.90;;;18.60;99.90;;;;;;5055938;28;20641;-77
2021/06/22 01:12:57;;;;;;;1999.90;999.90;;;18.60;99.90;;;;;;5053537;28;20208;-77
2021/06/22 01:15:28;;;;;;;1999.90;999.90;;;18.60;99.90;;;;;;5057607;28;20194;-76
2021/06/22 01:17:55;;;;;;;1999.90;999.90;;;18.70;99.90;;;;;;5056841;28;20550;-76
2021/06/22 01:20:22;;;;;;;1999.90;999.90;;;18.70;99.90;;;;;;5068105;28;20185;-76
2021/06/22 01:22:48;;;;;;;1999.90;999.90;;;18.70;99.90;;;;;;5073208;28;20185;-76
2021/06/22 01:25:15;;;;;;;1999.90;999.90;;;18.70;99.90;;;;;;5069536;28;20288;-77
2021/06/22 01:27:41;;;;;;;1999.90;999.90;;;18.60;99.90;;;;;;5065136;28;20186;-76
2021/06/22 01:30:08;;;;;;;1999.90;999.90;;;18.70;99.90;;;;;;5073654;28;20551;-76
2021/06/22 01:32:34;;;;;;;1999.90;999.90;;;18.70;99.90;;;;;;5055783;28;20185;-76
2021/06/22 01:34:59;;;;;;;1999.90;999.90;;;18.60;99.90;;;;;;5073641;28;20197;-77
2021/06/22 01:37:25;;;;;;;1999.90;999.90;;;18.60;99.90;;;;;;5051611;28;20189;-76
2021/06/22 01:39:51;;;;;;;1999.90;999.90;;;18.70;99.90;;;;;;5073466;28;20632;-75
2021/06/22 01:42:18;;;;;;;1999.90;999.90;;;18.70;99.90;;;;;;5053611;28;20303;-76
2021/06/22 01:44:46;;;;;;;1999.90;999.90;;;18.70;99.90;;;;;;5054837;28;20306;-76
2021/06/22 01:47:13;;;;;;;1999.90;999.90;;;18.70;99.90;;;;;;5049276;28;20200;-76
2021/06/22 01:49:38;;;;;;;1999.90;999.90;;;18.60;99.90;;;;;;5062490;28;20188;-76
2021/06/22 01:52:04;;;;;;;1999.90;999.90;;;18.60;99.90;;;;;;5053946;28;20185;-75
2021/06/22 01:54:30;;;;;;;1999.90;999.90;;;18.50;99.90;;;;;;5046533;28;20185;-76
2021/06/22 01:56:57;;;;;;;1999.90;999.90;;;18.50;99.90;;;;;;5070724;28;20284;-76
2021/06/22 01:59:24;;;;;;;1999.90;999.90;;;18.50;99.90;;;;;;5071586;28;20189;-76
2021/06/22 02:01:50;;;;;;;1999.90;999.90;;;18.50;99.90;;;;;;5051806;28;20184;-76
2021/06/22 02:04:16;;;;;;;1999.90;999.90;;;18.50;99.90;;;;;;5071122;28;20197;-75
2021/06/22 02:06:43;;;;;;;1999.90;999.90;;;18.50;99.90;;;;;;5070534;28;20203;-77
2021/06/22 02:09:09;;;;;;;1999.90;999.90;;;18.50;99.90;;;;;;5070682;28;20185;-77
2021/06/22 02:11:35;;;;;;;1999.90;999.90;;;18.50;99.90;;;;;;5051106;28;20173;-76
2021/06/22 02:14:04;;;;;;;1999.90;999.90;;;18.50;99.90;;;;;;5049219;28;20189;-76
2021/06/22 02:16:29;;;;;;;1999.90;999.90;;;18.50;99.90;;;;;;5070363;28;20192;-76
2021/06/22 02:18:55;;;;;;;1999.90;999.90;;;18.60;99.90;;;;;;5068882;28;20711;-76
2021/06/22 02:21:20;;;;;;;1999.90;999.90;;;18.50;99.90;;;;;;5069896;28;20173;-77
2021/06/22 02:23:46;;;;;;;1999.90;999.90;;;18.50;99.90;;;;;;5070044;28;20197;-77
2021/06/22 02:26:12;;;;;;;1999.90;999.90;;;18.50;99.90;;;;;;5067829;28;20192;-76
2021/06/22 02:28:38;;;;;;;1999.90;999.90;;;18.50;99.90;;;;;;5070517;28;20188;-76
2021/06/22 02:31:03;;;;;;;1999.90;999.90;;;18.50;99.90;;;;;;5068374;28;20271;-76
2021/06/22 02:33:29;;;;;;;1999.90;999.90;;;18.50;99.90;;;;;;5061016;28;20196;-76
2021/06/22 02:35:55;;;;;;;1999.90;999.90;;;18.50;99.90;;;;;;5063347;28;20236;-76
2021/06/22 02:38:21;;;;;;;1999.90;999.90;;;18.40;99.90;;;;;;5059937;28;20204;-76
2021/06/22 02:40:47;;;;;;;1999.90;999.90;;;18.40;99.90;;;;;;5069477;28;20204;-76
2021/06/22 02:43:14;;;;;;;1999.90;999.90;;;18.40;99.90;;;;;;5052865;28;20287;-76
2021/06/22 02:45:40;;;;;;;1999.90;999.90;;;18.30;99.90;;;;;;5071100;28;20197;-76
2021/06/22 02:48:09;;;;;;;1999.90;999.90;;;18.30;99.90;;;;;;5070431;28;20177;-77
2021/06/22 02:50:35;;;;;;;1999.90;999.90;;;18.30;99.90;;;;;;5071158;28;20184;-76
2021/06/22 02:53:00;;;;;;;1999.90;999.90;;;18.20;99.90;;;;;;5071081;28;20554;-76
2021/06/22 02:55:26;;;;;;;1999.90;999.90;;;18.20;99.90;;;;;;5071069;28;20288;-76
2021/06/22 02:57:55;;;;;;;1999.90;999.90;;;18.10;99.90;;;;;;5071069;28;20208;-76
2021/06/22 03:00:24;;;;;;;1999.90;999.90;;;18.10;99.90;;;;;;5071014;28;20177;-76
2021/06/22 03:02:51;;;;;;;1999.90;999.90;;;18.10;99.90;;;;;;5070904;28;20243;-76
2021/06/22 03:05:18;;;;;;;1999.90;999.90;;;18.10;99.90;;;;;;5096201;22;20353;-74
2021/06/22 03:07:44;;;;;;;1999.90;999.90;;;18.10;99.90;;;;;;5054045;28;20176;-75
2021/06/22 03:10:12;;;;;;;1999.90;999.90;;;18.10;99.90;;;;;;5071056;28;20176;-74
2021/06/22 03:12:39;;;;;;;1999.90;999.90;;;18.10;99.90;;;;;;5072222;28;20177;-73
2021/06/22 03:15:06;;;;;;;1999.90;999.90;;;18.10;99.90;;;;;;5053052;28;20267;-75
2021/06/22 03:17:32;;;;;;;1999.90;999.90;;;18.00;99.90;;;;;;5071306;28;20168;-75
2021/06/22 03:19:58;;;;;;;1999.90;999.90;;;18.00;99.90;;;;;;5071055;28;20734;-75
2021/06/22 03:22:24;;;;;;;1999.90;999.90;;;18.00;99.90;;;;;;5052899;28;20647;-75
2021/06/22 03:24:49;;;;;;;1999.90;999.90;;;18.10;99.90;;;;;;5052917;28;20205;-75
2021/06/22 03:27:15;;;;;;;1999.90;999.90;;;18.10;99.90;;;;;;5071104;28;20176;-75
2021/06/22 03:29:41;;;;;;;1999.90;999.90;;;18.00;99.90;;;;;;5068217;28;20173;-75
2021/06/22 03:32:07;;;;;;;1999.90;999.90;;;18.00;99.90;;;;;;5060418;28;20180;-76
2021/06/22 03:34:32;;;;;;;1999.90;999.90;;;17.90;99.90;;;;;;5070013;28;20205;-75
2021/06/22 03:36:58;;;;;;;1999.90;999.90;;;17.80;99.90;;;;;;5052774;28;20742;-75
2021/06/22 03:39:24;;;;;;;1999.90;999.90;;;17.80;99.90;;;;;;5070842;28;20188;-76
2021/06/22 03:41:49;;;;;;;1999.90;999.90;;;17.80;99.90;;;;;;5070396;28;20181;-74
2021/06/22 03:44:15;;;;;;;1999.90;999.90;;;17.80;99.90;;;;;;5055876;28;20243;-74
2021/06/22 03:46:44;;;;;;;1999.90;999.90;;;17.80;99.90;;;;;;5058044;28;20538;-73
2021/06/22 03:49:10;;;;;;;1999.90;999.90;;;17.80;99.90;;;;;;5041819;28;20172;-73
2021/06/22 03:51:35;;;;;;;1999.90;999.90;;;17.80;99.90;;;;;;5053251;28;20169;-74
2021/06/22 03:54:01;;;;;;;1999.90;999.90;;;17.80;99.90;;;;;;5052895;28;20205;-74
2021/06/22 03:56:28;;;;;;;1999.90;999.90;;;17.70;99.90;;;;;;5053665;28;20180;-73
2021/06/22 03:58:54;;;;;;;1999.90;999.90;;;17.70;99.90;;;;;;5072561;28;20278;-74
2021/06/22 04:01:20;;;;;;;1999.90;999.90;;;17.70;99.90;;;;;;5050007;28;20241;-75
2021/06/22 04:03:46;;;;;;;1999.90;999.90;;;17.60;99.90;;;;;;5065001;28;20226;-75
2021/06/22 04:06:12;;;;;;;1999.90;999.90;;;17.60;99.90;;;;;;5066380;28;20695;-75
2021/06/22 04:08:39;;;;;;;1999.90;999.90;;;17.60;99.90;;;;;;5053393;28;20815;-75
2021/06/22 04:11:05;;;;;;;1999.90;999.90;;;17.60;99.90;;;;;;5053584;28;20205;-76
2021/06/22 04:13:31;;;;;;;1999.90;999.90;;;17.70;99.90;;;;;;5054678;28;20273;-76
2021/06/22 04:15:57;;;;;;;1999.90;999.90;;;17.70;99.90;;;;;;5071784;28;20197;-75
2021/06/22 04:18:22;;;;;;;1999.90;999.90;;;17.80;99.90;;;;;;5072564;28;20208;-75
2021/06/22 04:20:48;;;;;;;1999.90;999.90;;;17.80;99.90;;;;;;5054554;28;20546;-75
2021/06/22 04:23:14;;;;;;;1999.90;999.90;;;17.80;99.90;;;;;;5072460;28;20233;-75
2021/06/22 04:25:40;;;;;;;1999.90;999.90;;;17.70;99.90;;;;;;5072417;28;20269;-75
2021/06/22 04:28:06;;;;;;;1999.90;999.90;;;17.70;99.90;;;;;;5069700;28;20694;-75
2021/06/22 04:30:34;;;;;;;1999.90;999.90;;;17.70;99.90;;;;;;5063727;28;20177;-75
2021/06/22 04:33:00;;;;;;;1999.90;999.90;;;17.80;99.90;;;;;;5054325;28;20207;-76
2021/06/22 04:35:29;;;;;;;1999.90;999.90;;;17.90;99.90;;;;;;5072517;28;20658;-75
2021/06/22 04:37:56;;;;;;;1999.90;999.90;;;17.90;99.90;;;;;;5054387;28;20180;-75
2021/06/22 04:40:21;;;;;;;1999.90;999.90;;;18.00;99.90;;;;;;5071679;28;20176;-74
2021/06/22 04:42:47;;;;;;;1999.90;999.90;;;18.00;99.90;;;;;;5051832;28;20216;-76
2021/06/22 04:45:13;;;;;;;1999.90;999.90;;;17.90;99.90;;;;;;5073345;28;20199;-74
2021/06/22 04:47:39;;;;;;;1999.90;999.90;;;17.80;99.90;;;;;;5075931;28;20196;-76
2021/06/22 04:50:05;;;;;;;1999.90;999.90;;;17.80;99.90;;;;;;5077165;28;20172;-79
2021/06/22 04:52:32;;;;;;;1999.90;999.90;;;17.70;99.90;;;;;;5079153;28;20259;-79
2021/06/22 04:54:58;;;;;;;1999.90;999.90;;;17.70;99.90;;;;;;5061275;28;20199;-81
2021/06/22 04:57:24;;;;;;;1999.90;999.90;;;17.70;99.90;;;;;;5061759;28;20257;-81
2021/06/22 04:59:50;;;;;;;1999.90;999.90;;;17.80;99.90;;;;;;5079084;28;20740;-81
2021/06/22 05:02:16;;;;;;;1999.90;999.90;;;17.80;99.90;;;;;;5061097;28;20196;-80
2021/06/22 05:04:41;;;;;;;1999.90;999.90;;;17.80;99.90;;;;;;5079305;28;20742;-81
2021/06/22 05:07:07;;;;;;;1999.90;999.90;;;17.90;99.90;;;;;;5079247;28;20169;-81
2021/06/22 05:09:33;;;;;;;1999.90;999.90;;;17.80;99.90;;;;;;5079467;28;20226;-80
2021/06/22 05:11:58;;;;;;;1999.90;999.90;;;17.80;99.90;;;;;;5078691;28;20172;-80
2021/06/22 05:14:24;;;;;;;1999.90;999.90;;;17.90;99.90;;;;;;5078719;28;20196;-80
2021/06/22 05:16:50;;;;;;;1999.90;999.90;;;17.90;99.90;;;;;;5078769;28;20177;-79
2021/06/22 05:19:18;;;;;;;1999.90;999.90;;;17.90;99.90;;;;;;5079448;28;20227;-80
2021/06/22 05:21:44;;;;;;;1999.90;999.90;;;18.00;99.90;;;;;;5079283;28;20172;-80
2021/06/22 05:24:11;;;;;;;1999.90;999.90;;;18.00;99.90;;;;;;5064130;28;20562;-79
2021/06/22 05:26:37;;;;;;;1999.90;999.90;;;17.90;99.90;;;;;;5058440;28;20166;-79
2021/06/22 05:29:03;;;;;;;1999.90;999.90;;;17.90;99.90;;;;;;5058533;28;20543;-79
2021/06/22 05:31:29;;;;;;;1999.90;999.90;;;17.90;99.90;;;;;;5040666;28;20252;-80
2021/06/22 05:33:56;;;;;;;1999.90;999.90;;;18.10;99.90;;;;;;5059363;28;20194;-80
2021/06/22 05:36:21;;;;;;;1999.90;999.90;;;18.10;99.90;;;;;;5040763;28;20170;-80
2021/06/22 05:38:47;;;;;;;1999.90;999.90;;;18.20;99.90;;;;;;5059082;28;20174;-82
2021/06/22 05:41:13;;;;;;;1999.90;999.90;;;18.30;99.90;;;;;;5051104;28;20192;-80
2021/06/22 05:43:38;;;;;;;1999.90;999.90;;;18.30;99.90;;;;;;5074148;28;20193;-80
2021/06/22 05:46:05;;;;;;;1999.90;999.90;;;18.30;99.90;;;;;;5078587;28;20189;-80
2021/06/22 05:48:31;;;;;;;1999.90;999.90;;;18.10;99.90;;;;;;5074728;28;20175;-81
2021/06/22 05:50:57;;;;;;;1999.90;999.90;;;18.00;99.90;;;;;;5054916;28;20172;-81
2021/06/22 05:53:22;;;;;;;1999.90;999.90;;;18.10;99.90;;;;;;5060177;28;20168;-81
2021/06/22 05:55:48;;;;;;;1999.90;999.90;;;18.00;99.90;;;;;;5077991;28;20185;-80
2021/06/22 05:58:14;;;;;;;1999.90;999.90;;;17.90;99.90;;;;;;5077444;28;20770;-79
2021/06/22 06:00:40;;;;;;;1999.90;999.90;;;17.70;99.90;;;;;;5067860;28;20206;-80
2021/06/22 06:03:06;;;;;;;1999.90;999.90;;;17.60;99.90;;;;;;5058116;28;20205;-80
2021/06/22 06:05:33;;;;;;;1999.90;999.90;;;17.50;99.90;;;;;;5066340;28;20563;-80
2021/06/22 06:07:58;;;;;;;1999.90;999.90;;;17.60;99.90;;;;;;5077790;28;20256;-81
2021/06/22 06:10:24;;;;;;;1999.90;999.90;;;17.60;99.90;;;;;;5057882;28;20193;-80
2021/06/22 06:12:50;;;;;;;1999.90;999.90;;;17.60;99.90;;;;;;5058134;28;20192;-80
2021/06/22 06:15:18;;;;;;;1999.90;999.90;;;17.80;99.90;;;;;;5057960;28;20199;-80
2021/06/22 06:17:44;;;;;;;1999.90;999.90;;;17.80;99.90;;;;;;5077941;28;20197;-80
2021/06/22 06:20:12;;;;;;;1999.90;999.90;;;17.80;99.90;;;;;;5077960;28;20226;-80
2021/06/22 06:22:39;;;;;;;1999.90;999.90;;;17.70;99.90;;;;;;5069313;28;20200;-79
2021/06/22 06:25:06;;;;;;;1999.90;999.90;;;17.70;99.90;;;;;;5058424;28;20235;-80
2021/06/22 06:27:41;;;;;;;1999.90;999.90;;;17.80;99.90;;;;;;5040079;28;20277;-80
2021/06/22 06:30:11;;;;;;;1999.90;999.90;;;17.90;99.90;;;;;;5057648;28;20255;-80
2021/06/22 06:32:36;;;;;;;1999.90;999.90;;;17.90;99.90;;;;;;5057755;28;20166;-80
2021/06/22 06:35:03;;;;;;;1999.90;999.90;;;17.70;99.90;;;;;;5057332;28;20221;-80
2021/06/22 06:37:28;;;;;;;1999.90;999.90;;;17.70;99.90;;;;;;5039409;28;20200;-81
2021/06/22 06:39:54;;;;;;;1999.90;999.90;;;17.70;99.90;;;;;;5057064;28;20596;-80
2021/06/22 06:42:19;;;;;;;1999.90;999.90;;;17.70;99.90;;;;;;5041928;28;20563;-80
2021/06/22 06:44:45;;;;;;;1999.90;999.90;;;17.90;99.90;;;;;;5076934;28;20189;-79
2021/06/22 06:47:11;;;;;;;1999.90;999.90;;;18.00;99.90;;;;;;5076654;28;20175;-79
2021/06/22 06:49:36;;;;;;;1999.90;999.90;;;18.10;99.90;;;;;;5046260;28;20172;-79
2021/06/22 06:52:04;;;;;;;1999.90;999.90;;;18.20;99.90;;;;;;5077748;28;20183;-79
2021/06/22 06:54:29;;;;;;;1999.90;999.90;;;18.20;99.90;;;;;;5077238;28;20284;-79
2021/06/22 06:56:55;;;;;;;1999.90;999.90;;;18.40;99.90;;;;;;5059273;28;20267;-80
2021/06/22 06:59:21;;;;;;;1999.90;999.90;;;18.60;99.90;;;;;;5077329;28;20235;-80
2021/06/22 07:01:46;;;;;;;1999.90;999.90;;;18.70;99.90;;;;;;5077284;28;20165;-80
2021/06/22 07:04:12;;;;;;;1999.90;999.90;;;18.70;99.90;;;;;;5077095;28;20216;-80
2021/06/22 07:06:38;;;;;;;1999.90;999.90;;;18.80;99.90;;;;;;5077406;28;20208;-79
2021/06/22 07:09:04;;;;;;;1999.90;999.90;;;18.90;99.90;;;;;;5076857;28;20176;-81
2021/06/22 07:11:30;;;;;;;1999.90;999.90;;;18.90;99.90;;;;;;5077476;28;20165;-81
2021/06/22 07:13:56;;;;;;;1999.90;999.90;;;18.90;99.90;;;;;;5076743;28;20260;-80
2021/06/22 07:16:21;;;;;;;1999.90;999.90;;;19.10;99.90;;;;;;5076770;28;20169;-80
2021/06/22 07:18:47;;;;;;;1999.90;999.90;;;19.20;99.90;;;;;;5076802;28;20169;-80
2021/06/22 07:21:16;;;;;;;1999.90;999.90;;;19.30;99.90;;;;;;5076970;28;20180;-80
2021/06/22 07:23:41;;;;;;;1999.90;999.90;;;19.40;99.90;;;;;;5076931;28;20272;-80
2021/06/22 07:26:07;;;;;;;1999.90;999.90;;;19.40;99.90;;;;;;5077121;28;20224;-80
2021/06/22 07:28:33;;;;;;;1999.90;999.90;;;19.50;99.90;;;;;;5076509;28;20647;-80
2021/06/22 07:30:59;;;;;;;1999.90;999.90;;;19.60;99.90;;;;;;5076616;28;20169;-79
2021/06/22 07:33:25;;;;;;;1999.90;999.90;;;19.60;99.90;;;;;;5059136;28;20220;-79
2021/06/22 07:35:51;;;;;;;1999.90;999.90;;;19.60;99.90;;;;;;5077921;28;20250;-81
2021/06/22 07:38:17;;;;;;;1999.90;999.90;;;19.70;99.90;;;;;;5077967;28;20173;-81
2021/06/22 07:40:42;;;;;;;1999.90;999.90;;;19.80;99.90;;;;;;5077366;28;20197;-81
2021/06/22 07:43:08;;;;;;;1999.90;999.90;;;19.90;99.90;;;;;;5064497;28;20201;-81
2021/06/22 07:45:34;;;;;;;1999.90;999.90;;;19.80;99.90;;;;;;5056868;28;20219;-81
2021/06/22 07:47:59;;;;;;;1999.90;999.90;;;19.90;99.90;;;;;;5057486;28;20166;-81
2021/06/22 07:50:25;;;;;;;1999.90;999.90;;;20.10;99.90;;;;;;5069735;28;20180;-81
2021/06/22 07:52:51;;;;;;;1999.90;999.90;;;20.20;99.90;;;;;;5077098;28;20173;-79
2021/06/22 07:55:17;;;;;;;1999.90;999.90;;;20.20;99.90;;;;;;5066680;28;20268;-79
2021/06/22 07:57:47;;;;;;;1999.90;999.90;;;20.30;99.90;;;;;;5073154;28;20169;-79
2021/06/22 08:00:24;;;;;;;1999.90;999.90;;;20.30;99.90;;;;;;5067773;28;20667;-79
2021/06/22 08:02:50;;;;;;;1999.90;999.90;;;20.30;99.90;;;;;;5063943;28;20193;-80
2021/06/22 08:05:15;;;;;;;1999.90;999.90;;;20.40;99.90;;;;;;5049962;28;20206;-80
2021/06/22 08:07:41;;;;;;;1999.90;999.90;;;20.50;99.90;;;;;;5038271;28;20177;-79
2021/06/22 08:10:07;;;;;;;1999.90;999.90;;;20.60;99.90;;;;;;5076197;28;20181;-79
2021/06/22 08:12:33;;;;;;;1999.90;999.90;;;20.80;99.90;;;;;;5076607;28;20169;-79
2021/06/22 08:14:59;;;;;;;1999.90;999.90;;;20.90;99.90;;;;;;5076608;28;20204;-79
2021/06/22 08:17:24;;;;;;;1999.90;999.90;;;20.90;99.90;;;;;;5076668;28;20168;-79
2021/06/22 08:19:50;;;;;;;1999.90;999.90;;;21.10;99.90;;;;;;5059153;28;20173;-79
2021/06/22 08:22:15;;;;;;;1999.90;999.90;;;21.20;99.90;;;;;;5080885;28;20180;-79
2021/06/22 08:24:41;;;;;;;1999.90;999.90;;;21.30;99.90;;;;;;5066409;28;20205;-79
2021/06/22 08:27:07;;;;;;;1999.90;999.90;;;21.30;99.90;;;;;;5069777;28;20196;-79
2021/06/22 08:29:32;;;;;;;1999.90;999.90;;;21.40;99.90;;;;;;5078633;28;20165;-78
2021/06/22 08:31:58;;;;;;;1999.90;999.90;;;21.30;99.90;;;;;;5071077;28;20653;-79
2021/06/22 08:34:23;;;;;;;1999.90;999.90;;;21.40;99.90;;;;;;5061197;28;20197;-80
2021/06/22 08:36:49;;;;;;;1999.90;999.90;;;21.40;99.90;;;;;;5080124;28;20585;-80
2021/06/22 08:39:15;;;;;;;1999.90;999.90;;;21.30;99.90;;;;;;5062287;28;20177;-80
2021/06/22 08:41:41;;;;;;;1999.90;999.90;;;21.40;99.90;;;;;;5068780;28;20182;-79
2021/06/22 08:44:09;;;;;;;1999.90;999.90;;;21.40;99.90;;;;;;5059999;28;20695;-79
2021/06/22 08:46:35;;;;;;;1999.90;999.90;;;21.50;99.90;;;;;;5059957;28;20170;-79
2021/06/22 08:49:02;;;;;;;1999.90;999.90;;;21.40;99.90;;;;;;5060019;28;20182;-79
2021/06/22 08:51:29;;;;;;;1999.90;999.90;;;21.40;99.90;;;;;;5059726;28;20170;-80
2021/06/22 08:53:55;;;;;;;1999.90;999.90;;;21.40;99.90;;;;;;5073338;28;20651;-80
2021/06/22 08:56:25;;;;;;;1999.90;999.90;;;21.20;99.90;;;;;;5079403;28;20185;-79
2021/06/22 08:58:51;;;;;;;1999.90;999.90;;;21.30;99.90;;;;;;5066921;28;20236;-79
2021/06/22 09:01:17;;;;;;;1999.90;999.90;;;21.20;99.90;;;;;;5059151;28;20177;-79
2021/06/22 09:03:42;;;;;;;1999.90;999.90;;;21.30;99.90;;;;;;5078886;28;20197;-79
2021/06/22 09:06:08;;;;;;;1999.90;999.90;;;21.20;99.90;;;;;;5085649;22;121036;-84
2021/06/22 09:08:34;;;;;;;1999.90;999.90;;;21.20;99.90;;;;;;5059995;28;20233;-83
2021/06/22 09:11:07;;;;;;;1999.90;999.90;;;21.20;99.90;;;;;;5060408;28;20174;-83
2021/06/22 09:13:34;;;;;;;1999.90;999.90;;;21.00;99.90;;;;;;5023355;28;20672;-83
2021/06/22 09:15:59;;;;;;;1999.90;999.90;;;21.10;99.90;;;;;;5053520;28;20205;-83
2021/06/22 09:18:34;;;;;;;1999.90;999.90;;;21.20;99.90;;;;;;5060923;28;20166;-83
2021/06/22 09:21:01;;;;;;;1999.90;999.90;;;21.20;99.90;;;;;;5059358;28;20169;-82
2021/06/22 09:23:30;;;;;;;1999.90;999.90;;;21.20;99.90;;;;;;5060615;28;20185;-83
2021/06/22 09:25:57;;;;;;;1999.90;999.90;;;21.30;99.90;;;;;;5060753;28;20186;-83
2021/06/22 09:28:26;;;;;;;1999.90;999.90;;;21.30;99.90;;;;;;5059528;28;20204;-83
2021/06/22 09:31:03;;;;;;;1999.90;999.90;;;21.40;99.90;;;;;;5059599;28;20158;-83
2021/06/22 09:33:35;;;;;;;1999.90;999.90;;;21.30;99.90;;;;;;5060292;28;20216;-83
2021/06/22 09:36:21;;;;;;;1999.90;999.90;;;21.30;99.90;;;;;;5058675;28;20198;-83
2021/06/22 09:38:54;;;;;;;1999.90;999.90;;;21.30;99.90;;;;;;5058915;28;20174;-84
2021/06/22 09:41:28;;;;;;;1999.90;999.90;;;21.30;99.90;;;;;;5060404;28;20173;-83
2021/06/22 09:44:06;;;;;;;1999.90;999.90;;;21.20;99.90;;;;;;5058604;28;20186;-84
2021/06/22 09:46:38;;;;;;;1999.90;999.90;;;21.30;99.90;;;;;;5059761;28;20679;-83
2021/06/22 09:49:06;;;;;;;1999.90;999.90;;;21.30;99.90;;;;;;5042131;28;20256;-83
2021/06/22 09:51:36;;;;;;;1999.90;999.90;;;21.40;99.90;;;;;;5060646;28;20248;-83
2021/06/22 09:54:16;;;;;;;1999.90;999.90;;;21.40;99.90;;;;;;5061137;28;20527;-84
2021/06/22 09:57:11;;;;;;;1999.90;999.90;;;21.50;99.90;;;;;;5059361;28;20280;-83
2021/06/22 09:59:50;;;;;;;1999.90;999.90;;;21.50;99.90;;;;;;5061160;28;20170;-84
2021/06/22 10:02:16;;;;;;;1999.90;999.90;;;21.40;99.90;;;;;;5058312;28;20173;-84
2021/06/22 10:04:48;;;;;;;1999.90;999.90;;;21.30;99.90;;;;;;5060850;28;20261;-83
2021/06/22 10:07:16;;;;;;;1999.90;999.90;;;21.30;99.90;;;;;;5060410;28;20651;-83
2021/06/22 10:09:43;;;;;;;1999.90;999.90;;;21.20;99.90;;;;;;5054391;28;20174;-83
2021/06/22 10:12:14;;;;;;;1999.90;999.90;;;21.20;99.90;;;;;;5049981;28;20633;-83
2021/06/22 10:14:44;;;;;;;1999.90;999.90;;;21.10;99.90;;;;;;5059765;28;20690;-83
2021/06/22 10:17:25;;;;;;;1999.90;999.90;;;21.00;99.90;;;;;;5059623;28;20181;-83
2021/06/22 10:19:53;;;;;;;1999.90;999.90;;;20.90;99.90;;;;;;5059523;28;20537;-83
2021/06/22 10:22:22;;;;;;;1999.90;999.90;;;21.00;99.90;;;;;;5059599;28;20215;-83
2021/06/22 10:24:48;;;;;;;1999.90;999.90;;;20.90;99.90;;;;;;5059104;28;20225;-83
2021/06/22 10:27:19;;;;;;;1999.90;999.90;;;20.80;99.90;;;;;;5059018;28;20182;-83
2021/06/22 10:29:47;;;;;;;1999.90;999.90;;;20.70;99.90;;;;;;5059853;28;20169;-84
2021/06/22 10:32:14;;;;;;;1999.90;999.90;;;20.60;99.90;;;;;;5060326;28;20229;-83
2021/06/22 10:34:47;;;;;;;1999.90;999.90;;;20.40;99.90;;;;;;5060026;28;20201;-84
2021/06/22 10:37:17;;;;;;;1999.90;999.90;;;20.30;99.90;;;;;;5058572;28;20174;-84
2021/06/22 10:39:51;;;;;;;1999.90;999.90;;;20.20;99.90;;;;;;5058468;28;20212;-83
2021/06/22 10:42:17;;;;;;;1999.90;999.90;;;20.20;99.90;;;;;;5059325;28;20174;-84
2021/06/22 10:44:47;;;;;;;1999.90;999.90;;;20.30;99.90;;;;;;5058516;28;20196;-83
2021/06/22 10:47:26;;;;;;;1999.90;999.90;;;20.30;99.90;;;;;;5059870;28;20170;-83
2021/06/22 10:49:59;;;;;;;1999.90;999.90;;;20.30;99.90;;;;;;5060246;28;20206;-83
2021/06/22 10:52:43;;;;;;;1999.90;999.90;;;20.50;99.90;;;;;;5059754;28;20162;-83
2021/06/22 10:55:44;;;;;;;1999.90;999.90;;;20.60;99.90;;;;;;5058027;28;20572;-84
2021/06/22 10:58:14;;;;;;;1999.90;999.90;;;20.50;99.90;;;;;;5059338;28;20169;-83
2021/06/22 11:00:43;;;;;;;1999.90;999.90;;;20.50;99.90;;;;;;5058498;28;20178;-84
2021/06/22 11:03:09;;;;;;;1999.90;999.90;;;20.50;99.90;;;;;;5059721;28;20186;-83
2021/06/22 11:05:37;;;;;;;1999.90;999.90;;;20.60;99.90;;;;;;5057817;28;20224;-85
2021/06/22 11:08:16;;;;;;;1999.90;999.90;;;20.70;99.90;;;;;;5059924;28;20162;-83
2021/06/22 11:10:54;;;;;;;1999.90;999.90;;;20.70;99.90;;;;;;5058039;28;20203;-84
2021/06/22 11:13:45;;;;;;;1999.90;999.90;;;20.80;99.90;;;;;;5057716;28;20173;-83
2021/06/22 11:16:17;;;;;;;1999.90;999.90;;;20.90;99.90;;;;;;5057483;28;20243;-83
2021/06/22 11:18:54;;;;;;;1999.90;999.90;;;20.90;99.90;;;;;;5059455;28;20536;-83
2021/06/22 11:21:22;;;;;;;1999.90;999.90;;;21.00;99.90;;;;;;5059209;28;20173;-83
2021/06/22 11:24:06;;;;;;;1999.90;999.90;;;21.00;99.90;;;;;;5059633;28;20676;-83
2021/06/22 11:26:58;;;;;;;1999.90;999.90;;;21.10;99.90;;;;;;5058916;28;20193;-83
2021/06/22 11:29:42;;;;;;;1999.90;999.90;;;21.20;99.90;;;;;;5059178;28;20667;-83
2021/06/22 11:32:09;;;;;;;1999.90;999.90;;;21.20;99.90;;;;;;5059430;28;20533;-84
2021/06/22 11:34:51;;;;;;;1999.90;999.90;;;21.20;99.90;;;;;;5059104;28;20174;-84
2021/06/22 11:37:18;;;;;;;1999.90;999.90;;;21.30;99.90;;;;;;5057841;28;20173;-84
2021/06/22 11:40:02;;;;;;;1999.90;999.90;;;21.20;99.90;;;;;;5057685;28;20193;-84
2021/06/22 11:42:28;;;;;;;1999.90;999.90;;;21.30;99.90;;;;;;5059187;28;20232;-84
2021/06/22 11:45:15;;;;;;;1999.90;999.90;;;21.40;99.90;;;;;;5058341;28;20205;-84
2021/06/22 11:47:47;;;;;;;1999.90;999.90;;;21.40;99.90;;;;;;5057930;28;20174;-83
2021/06/22 11:50:14;;;;;;;1999.90;999.90;;;21.50;99.90;;;;;;5057730;28;20188;-83
2021/06/22 11:52:44;;;;;;;1999.90;999.90;;;21.60;99.90;;;;;;5058845;28;20237;-84
2021/06/22 11:55:15;;;;;;;1999.90;999.90;;;21.60;99.90;;;;;;5045411;28;20724;-84
2021/06/22 11:57:44;;;;;;;1999.90;999.90;;;21.70;99.90;;;;;;5062079;28;20173;-84
2021/06/22 12:00:18;;;;;;;1999.90;999.90;;;21.70;99.90;;;;;;5063159;28;20260;-83
2021/06/22 12:03:01;;;;;;;1999.90;999.90;;;21.70;99.90;;;;;;5062042;28;20544;-83